sensor_id;sensor_type;location;lat;lon;timestamp;temperature;humidity
19330;DHT22;9799;48.214;16.388;2024-01-07T00:02:07;4.60;99.90
19330;DHT22;9799;48.214;16.388;2024-01-07T00:05:28;4.50;99.90
19330;DHT22;9799;48.214;16.388;2024-01-07T00:08:49;4.60;99.90
19330;DHT22;9799;48.214;16.388;2024-01-07T00:12:11;4.40;99.90
19330;DHT22;9799;48.214;16.388;2024-01-07T00:15:33;4.40;99.90
19330;DHT22;9799;48.214;16.388;2024-01-07T00:18:54;4.40;99.90
19330;DHT22;9799;48.214;16.388;2024-01-07T00:22:15;4.40;99.90
19330;DHT22;9799;48.214;16.388;2024-01-07T00:25:37;4.40;99.90
19330;DHT22;9799;48.214;16.388;2024-01-07T00:28:58;4.30;99.90
19330;DHT22;9799;48.214;16.388;2024-01-07T00:32:21;4.10;99.90
19330;DHT22;9799;48.214;16.388;2024-01-07T00:35:42;4.10;99.90
19330;DHT22;9799;48.214;16.388;2024-01-07T00:39:03;4.10;99.90
19330;DHT22;9799;48.214;16.388;2024-01-07T00:42:24;4.00;99.90
19330;DHT22;9799;48.214;16.388;2024-01-07T00:45:45;3.90;99.90
19330;DHT22;9799;48.214;16.388;2024-01-07T00:49:08;3.90;99.90
19330;DHT22;9799;48.214;16.388;2024-01-07T00:52:29;4.10;99.90
19330;DHT22;9799;48.214;16.388;2024-01-07T00:55:50;4.00;99.90
19330;DHT22;9799;48.214;16.388;2024-01-07T00:59:11;4.10;99.90
19330;DHT22;9799;48.214;16.388;2024-01-07T01:02:32;4.10;99.90
19330;DHT22;9799;48.214;16.388;2024-01-07T01:05:55;4.10;99.90
19330;DHT22;9799;48.214;16.388;2024-01-07T01:09:16;4.10;99.90
19330;DHT22;9799;48.214;16.388;2024-01-07T01:12:37;4.00;99.90
19330;DHT22;9799;48.214;16.388;2024-01-07T01:15:58;4.00;99.90
19330;DHT22;9799;48.214;16.388;2024-01-07T01:19:19;4.00;99.90
19330;DHT22;9799;48.214;16.388;2024-01-07T01:22:42;4.00;99.90
19330;DHT22;9799;48.214;16.388;2024-01-07T01:26:03;3.80;99.90
19330;DHT22;9799;48.214;16.388;2024-01-07T01:29:24;3.80;99.90
19330;DHT22;9799;48.214;16.388;2024-01-07T01:32:45;3.80;99.90
19330;DHT22;9799;48.214;16.388;2024-01-07T01:36:07;3.90;99.90
19330;DHT22;9799;48.214;16.388;2024-01-07T01:39:30;3.70;99.90
19330;DHT22;9799;48.214;16.388;2024-01-07T01:42:51;3.70;99.90
19330;DHT22;9799;48.214;16.388;2024-01-07T01:46:13;3.70;99.90
19330;DHT22;9799;48.214;16.388;2024-01-07T01:49:35;3.70;99.90
19330;DHT22;9799;48.214;16.388;2024-01-07T01:52:57;3.60;99.90
19330;DHT22;9799;48.214;16.388;2024-01-07T01:56:20;3.60;99.90
19330;DHT22;9799;48.214;16.388;2024-01-07T01:59:42;3.60;99.90
19330;DHT22;9799;48.214;16.388;2024-01-07T02:03:04;3.70;99.90
19330;DHT22;9799;48.214;16.388;2024-01-07T02:06:25;3.70;99.90
19330;DHT22;9799;48.214;16.388;2024-01-07T02:09:46;3.70;99.90
19330;DHT22;9799;48.214;16.388;2024-01-07T02:13:09;3.80;99.90
19330;DHT22;9799;48.214;16.388;2024-01-07T02:16:30;3.60;99.90
19330;DHT22;9799;48.214;16.388;2024-01-07T02:19:51;3.50;99.90
19330;DHT22;9799;48.214;16.388;2024-01-07T02:23:12;3.50;99.90
19330;DHT22;9799;48.214;16.388;2024-01-07T02:26:35;3.50;99.90
19330;DHT22;9799;48.214;16.388;2024-01-07T02:29:56;3.60;99.90
19330;DHT22;9799;48.214;16.388;2024-01-07T02:33:17;3.50;99.90
19330;DHT22;9799;48.214;16.388;2024-01-07T02:36:38;3.50;99.90
19330;DHT22;9799;48.214;16.388;2024-01-07T02:39:59;3.40;99.90
19330;DHT22;9799;48.214;16.388;2024-01-07T02:43:22;3.40;99.90
19330;DHT22;9799;48.214;16.388;2024-01-07T02:46:43;3.40;99.90
19330;DHT22;9799;48.214;16.388;2024-01-07T02:50:06;3.40;99.90
19330;DHT22;9799;48.214;16.388;2024-01-07T02:53:27;3.50;99.90
19330;DHT22;9799;48.214;16.388;2024-01-07T02:56:49;3.40;99.90
19330;DHT22;9799;48.214;16.388;2024-01-07T03:00:12;3.30;99.90
19330;DHT22;9799;48.214;16.388;2024-01-07T03:03:33;3.30;99.90
19330;DHT22;9799;48.214;16.388;2024-01-07T03:06:54;3.20;99.90
19330;DHT22;9799;48.214;16.388;2024-01-07T03:10:15;3.30;99.90
19330;DHT22;9799;48.214;16.388;2024-01-07T03:13:36;3.30;99.90
19330;DHT22;9799;48.214;16.388;2024-01-07T03:16:59;3.30;99.90
19330;DHT22;9799;48.214;16.388;2024-01-07T03:20:20;3.30;99.90
19330;DHT22;9799;48.214;16.388;2024-01-07T03:23:41;3.40;99.90
19330;DHT22;9799;48.214;16.388;2024-01-07T03:27:02;3.30;99.90
19330;DHT22;9799;48.214;16.388;2024-01-07T03:30:23;3.40;99.90
19330;DHT22;9799;48.214;16.388;2024-01-07T03:33:46;3.40;99.90
19330;DHT22;9799;48.214;16.388;2024-01-07T03:37:07;3.60;99.90
19330;DHT22;9799;48.214;16.388;2024-01-07T03:40:28;3.50;99.90
19330;DHT22;9799;48.214;16.388;2024-01-07T03:43:49;3.40;99.90
19330;DHT22;9799;48.214;16.388;2024-01-07T03:47:11;3.30;99.90
19330;DHT22;9799;48.214;16.388;2024-01-07T03:50:34;3.20;99.90
19330;DHT22;9799;48.214;16.388;2024-01-07T03:53:55;3.00;99.90
19330;DHT22;9799;48.214;16.388;2024-01-07T03:57:16;3.00;99.90
19330;DHT22;9799;48.214;16.388;2024-01-07T04:00:37;2.90;99.90
19330;DHT22;9799;48.214;16.388;2024-01-07T04:03:58;2.90;99.90
19330;DHT22;9799;48.214;16.388;2024-01-07T04:07:21;2.90;99.90
19330;DHT22;9799;48.214;16.388;2024-01-07T04:10:42;2.90;99.90
19330;DHT22;9799;48.214;16.388;2024-01-07T04:14:03;3.00;99.90
19330;DHT22;9799;48.214;16.388;2024-01-07T04:17:24;3.10;99.90
19330;DHT22;9799;48.214;16.388;2024-01-07T04:20:45;3.10;99.90
19330;DHT22;9799;48.214;16.388;2024-01-07T04:24:08;2.90;99.90
19330;DHT22;9799;48.214;16.388;2024-01-07T04:27:29;2.80;99.90
19330;DHT22;9799;48.214;16.388;2024-01-07T04:30:50;2.80;99.90
19330;DHT22;9799;48.214;16.388;2024-01-07T04:34:11;2.70;99.90
19330;DHT22;9799;48.214;16.388;2024-01-07T04:37:33;2.90;99.90
19330;DHT22;9799;48.214;16.388;2024-01-07T04:40:55;2.90;99.90
19330;DHT22;9799;48.214;16.388;2024-01-07T04:44:16;2.90;99.90
19330;DHT22;9799;48.214;16.388;2024-01-07T04:47:37;2.90;99.90
19330;DHT22;9799;48.214;16.388;2024-01-07T04:50:59;3.00;99.90
19330;DHT22;9799;48.214;16.388;2024-01-07T04:54:20;2.80;99.90
19330;DHT22;9799;48.214;16.388;2024-01-07T04:57:42;2.90;99.90
19330;DHT22;9799;48.214;16.388;2024-01-07T05:01:03;3.00;99.90
19330;DHT22;9799;48.214;16.388;2024-01-07T05:04:25;3.00;99.90
19330;DHT22;9799;48.214;16.388;2024-01-07T05:07:46;3.00;99.90
19330;DHT22;9799;48.214;16.388;2024-01-07T05:11:07;2.90;99.90
19330;DHT22;9799;48.214;16.388;2024-01-07T05:14:29;2.80;99.90
19330;DHT22;9799;48.214;16.388;2024-01-07T05:17:51;2.90;99.90
19330;DHT22;9799;48.214;16.388;2024-01-07T05:21:12;2.90;99.90
19330;DHT22;9799;48.214;16.388;2024-01-07T05:24:33;2.90;99.90
19330;DHT22;9799;48.214;16.388;2024-01-07T05:27:54;2.90;99.90
19330;DHT22;9799;48.214;16.388;2024-01-07T05:31:17;3.00;99.90
19330;DHT22;9799;48.214;16.388;2024-01-07T05:34:38;2.90;99.90
19330;DHT22;9799;48.214;16.388;2024-01-07T05:38:00;2.70;99.90
19330;DHT22;9799;48.214;16.388;2024-01-07T05:41:21;2.70;99.90
19330;DHT22;9799;48.214;16.388;2024-01-07T05:44:43;2.80;99.90
19330;DHT22;9799;48.214;16.388;2024-01-07T05:48:06;2.70;99.90
19330;DHT22;9799;48.214;16.388;2024-01-07T05:51:28;2.70;99.90
19330;DHT22;9799;48.214;16.388;2024-01-07T05:54:49;2.70;99.90
19330;DHT22;9799;48.214;16.388;2024-01-07T05:58:10;2.80;99.90
19330;DHT22;9799;48.214;16.388;2024-01-07T06:01:32;2.90;99.90
19330;DHT22;9799;48.214;16.388;2024-01-07T06:04:55;2.80;99.90
19330;DHT22;9799;48.214;16.388;2024-01-07T06:08:16;2.70;99.90
19330;DHT22;9799;48.214;16.388;2024-01-07T06:11:37;2.60;99.90
19330;DHT22;9799;48.214;16.388;2024-01-07T06:14:58;2.50;99.90
19330;DHT22;9799;48.214;16.388;2024-01-07T06:18:20;2.30;99.90
19330;DHT22;9799;48.214;16.388;2024-01-07T06:21:42;2.40;99.90
19330;DHT22;9799;48.214;16.388;2024-01-07T06:25:05;2.40;99.90
19330;DHT22;9799;48.214;16.388;2024-01-07T06:28:26;2.30;99.90
19330;DHT22;9799;48.214;16.388;2024-01-07T06:31:47;2.20;99.90
19330;DHT22;9799;48.214;16.388;2024-01-07T06:35:08;2.10;99.90
19330;DHT22;9799;48.214;16.388;2024-01-07T06:38:31;2.10;99.90
19330;DHT22;9799;48.214;16.388;2024-01-07T06:42:06;2.20;99.90
19330;DHT22;9799;48.214;16.388;2024-01-07T06:45:28;2.20;99.90
19330;DHT22;9799;48.214;16.388;2024-01-07T06:48:49;2.20;99.90
19330;DHT22;9799;48.214;16.388;2024-01-07T06:52:10;2.10;99.90
19330;DHT22;9799;48.214;16.388;2024-01-07T06:55:32;2.20;99.90
19330;DHT22;9799;48.214;16.388;2024-01-07T06:59:01;2.10;99.90
19330;DHT22;9799;48.214;16.388;2024-01-07T07:02:22;2.00;99.90
19330;DHT22;9799;48.214;16.388;2024-01-07T07:05:43;1.90;99.90
19330;DHT22;9799;48.214;16.388;2024-01-07T07:09:04;2.00;99.90
19330;DHT22;9799;48.214;16.388;2024-01-07T07:12:26;1.80;99.90
19330;DHT22;9799;48.214;16.388;2024-01-07T07:15:47;1.80;99.90
19330;DHT22;9799;48.214;16.388;2024-01-07T07:19:09;1.90;99.90
19330;DHT22;9799;48.214;16.388;2024-01-07T07:22:34;1.90;99.90
19330;DHT22;9799;48.214;16.388;2024-01-07T07:25:55;1.70;99.90
19330;DHT22;9799;48.214;16.388;2024-01-07T07:29:17;1.60;99.90
19330;DHT22;9799;48.214;16.388;2024-01-07T07:32:39;1.60;99.90
19330;DHT22;9799;48.214;16.388;2024-01-07T07:36:01;1.50;99.90
19330;DHT22;9799;48.214;16.388;2024-01-07T07:39:22;1.50;99.90
19330;DHT22;9799;48.214;16.388;2024-01-07T07:42:43;1.50;99.90
19330;DHT22;9799;48.214;16.388;2024-01-07T07:46:06;1.40;99.90
19330;DHT22;9799;48.214;16.388;2024-01-07T07:49:27;1.50;99.90
19330;DHT22;9799;48.214;16.388;2024-01-07T07:52:48;1.60;99.90
19330;DHT22;9799;48.214;16.388;2024-01-07T07:56:09;1.60;99.90
19330;DHT22;9799;48.214;16.388;2024-01-07T07:59:30;1.70;99.90
19330;DHT22;9799;48.214;16.388;2024-01-07T08:02:53;1.80;99.90
19330;DHT22;9799;48.214;16.388;2024-01-07T08:06:14;1.60;99.90
19330;DHT22;9799;48.214;16.388;2024-01-07T08:09:35;1.50;99.90
19330;DHT22;9799;48.214;16.388;2024-01-07T08:12:56;1.50;99.90
19330;DHT22;9799;48.214;16.388;2024-01-07T08:16:18;1.50;99.90
19330;DHT22;9799;48.214;16.388;2024-01-07T08:19:41;1.60;99.90
19330;DHT22;9799;48.214;16.388;2024-01-07T08:23:02;1.70;99.90
19330;DHT22;9799;48.214;16.388;2024-01-07T08:26:24;1.80;99.90
19330;DHT22;9799;48.214;16.388;2024-01-07T08:29:45;1.60;99.90
19330;DHT22;9799;48.214;16.388;2024-01-07T08:33:07;1.60;99.90
19330;DHT22;9799;48.214;16.388;2024-01-07T08:36:29;1.60;99.90
19330;DHT22;9799;48.214;16.388;2024-01-07T08:39:50;1.80;99.90
19330;DHT22;9799;48.214;16.388;2024-01-07T08:43:11;1.50;99.90
19330;DHT22;9799;48.214;16.388;2024-01-07T08:46:32;1.50;99.90
19330;DHT22;9799;48.214;16.388;2024-01-07T08:49:54;1.50;99.90
19330;DHT22;9799;48.214;16.388;2024-01-07T08:53:17;1.50;99.90
19330;DHT22;9799;48.214;16.388;2024-01-07T08:56:38;1.50;99.90
19330;DHT22;9799;48.214;16.388;2024-01-07T09:00:00;1.50;99.90
19330;DHT22;9799;48.214;16.388;2024-01-07T09:03:22;1.50;99.90
19330;DHT22;9799;48.214;16.388;2024-01-07T09:06:43;1.60;99.90
19330;DHT22;9799;48.214;16.388;2024-01-07T09:10:06;1.50;99.90
19330;DHT22;9799;48.214;16.388;2024-01-07T09:13:30;1.40;99.90
19330;DHT22;9799;48.214;16.388;2024-01-07T09:16:51;1.50;99.90
19330;DHT22;9799;48.214;16.388;2024-01-07T09:20:13;1.60;99.90
19330;DHT22;9799;48.214;16.388;2024-01-07T09:23:34;1.70;99.90
19330;DHT22;9799;48.214;16.388;2024-01-07T09:26:57;1.70;99.90
19330;DHT22;9799;48.214;16.388;2024-01-07T09:30:19;1.50;99.90
19330;DHT22;9799;48.214;16.388;2024-01-07T09:33:40;1.30;99.90
19330;DHT22;9799;48.214;16.388;2024-01-07T09:37:01;1.30;99.90
19330;DHT22;9799;48.214;16.388;2024-01-07T09:40:22;1.30;99.90
19330;DHT22;9799;48.214;16.388;2024-01-07T09:43:45;1.40;99.90
19330;DHT22;9799;48.214;16.388;2024-01-07T09:47:09;1.40;99.90
19330;DHT22;9799;48.214;16.388;2024-01-07T09:50:31;1.50;99.90
19330;DHT22;9799;48.214;16.388;2024-01-07T09:53:57;1.50;99.90
19330;DHT22;9799;48.214;16.388;2024-01-07T09:57:18;1.50;99.90
19330;DHT22;9799;48.214;16.388;2024-01-07T10:00:41;1.60;99.90
19330;DHT22;9799;48.214;16.388;2024-01-07T10:04:02;1.60;99.90
19330;DHT22;9799;48.214;16.388;2024-01-07T10:07:23;1.60;99.90
19330;DHT22;9799;48.214;16.388;2024-01-07T10:10:45;1.70;99.90
19330;DHT22;9799;48.214;16.388;2024-01-07T10:14:06;1.70;99.90
19330;DHT22;9799;48.214;16.388;2024-01-07T10:17:28;1.70;99.90
19330;DHT22;9799;48.214;16.388;2024-01-07T10:20:50;1.60;99.90
19330;DHT22;9799;48.214;16.388;2024-01-07T10:24:12;1.60;99.90
19330;DHT22;9799;48.214;16.388;2024-01-07T10:27:34;1.60;99.90
19330;DHT22;9799;48.214;16.388;2024-01-07T10:30:56;1.50;99.90
19330;DHT22;9799;48.214;16.388;2024-01-07T10:34:19;1.60;99.90
19330;DHT22;9799;48.214;16.388;2024-01-07T10:37:42;1.40;99.90
19330;DHT22;9799;48.214;16.388;2024-01-07T10:41:05;1.60;99.90
19330;DHT22;9799;48.214;16.388;2024-01-07T10:44:30;1.80;99.90
19330;DHT22;9799;48.214;16.388;2024-01-07T10:47:54;1.70;99.90
19330;DHT22;9799;48.214;16.388;2024-01-07T10:51:19;1.60;99.90
19330;DHT22;9799;48.214;16.388;2024-01-07T10:54:42;1.50;99.90
19330;DHT22;9799;48.214;16.388;2024-01-07T10:58:05;1.60;99.90
19330;DHT22;9799;48.214;16.388;2024-01-07T11:01:27;1.70;99.90
19330;DHT22;9799;48.214;16.388;2024-01-07T11:05:05;1.60;99.90
19330;DHT22;9799;48.214;16.388;2024-01-07T11:08:32;1.60;99.90
19330;DHT22;9799;48.214;16.388;2024-01-07T11:11:55;1.50;99.90
19330;DHT22;9799;48.214;16.388;2024-01-07T11:15:51;1.50;99.90
19330;DHT22;9799;48.214;16.388;2024-01-07T11:19:13;1.60;99.90
19330;DHT22;9799;48.214;16.388;2024-01-07T11:22:35;1.60;99.90
19330;DHT22;9799;48.214;16.388;2024-01-07T11:25:58;1.70;99.90
19330;DHT22;9799;48.214;16.388;2024-01-07T11:29:19;1.80;99.90
19330;DHT22;9799;48.214;16.388;2024-01-07T11:32:40;1.70;99.90
19330;DHT22;9799;48.214;16.388;2024-01-07T11:36:02;1.60;99.90
19330;DHT22;9799;48.214;16.388;2024-01-07T11:39:24;1.70;99.90
19330;DHT22;9799;48.214;16.388;2024-01-07T11:42:46;1.60;99.90
19330;DHT22;9799;48.214;16.388;2024-01-07T11:46:08;1.50;99.90
19330;DHT22;9799;48.214;16.388;2024-01-07T11:49:31;1.70;99.90
19330;DHT22;9799;48.214;16.388;2024-01-07T11:52:53;1.70;99.90
19330;DHT22;9799;48.214;16.388;2024-01-07T11:56:14;1.70;99.90
19330;DHT22;9799;48.214;16.388;2024-01-07T11:59:37;1.70;99.90
19330;DHT22;9799;48.214;16.388;2024-01-07T12:02:59;1.60;99.90
19330;DHT22;9799;48.214;16.388;2024-01-07T12:06:20;1.80;99.90
19330;DHT22;9799;48.214;16.388;2024-01-07T12:09:41;1.90;99.90
19330;DHT22;9799;48.214;16.388;2024-01-07T12:13:03;1.80;99.90
19330;DHT22;9799;48.214;16.388;2024-01-07T12:16:26;1.70;99.90
19330;DHT22;9799;48.214;16.388;2024-01-07T12:19:48;1.60;99.90
19330;DHT22;9799;48.214;16.388;2024-01-07T12:23:12;1.60;99.90
19330;DHT22;9799;48.214;16.388;2024-01-07T12:26:33;1.70;99.90
19330;DHT22;9799;48.214;16.388;2024-01-07T12:29:55;1.60;99.90
19330;DHT22;9799;48.214;16.388;2024-01-07T12:33:19;1.50;99.90
19330;DHT22;9799;48.214;16.388;2024-01-07T12:36:40;1.50;99.90
19330;DHT22;9799;48.214;16.388;2024-01-07T12:40:02;1.60;99.90
19330;DHT22;9799;48.214;16.388;2024-01-07T12:43:24;1.50;99.90
19330;DHT22;9799;48.214;16.388;2024-01-07T12:46:45;1.50;99.90
19330;DHT22;9799;48.214;16.388;2024-01-07T12:50:10;1.50;99.90
19330;DHT22;9799;48.214;16.388;2024-01-07T12:53:31;1.50;99.90
19330;DHT22;9799;48.214;16.388;2024-01-07T12:56:52;1.50;99.90
19330;DHT22;9799;48.214;16.388;2024-01-07T13:00:15;1.50;99.90
19330;DHT22;9799;48.214;16.388;2024-01-07T13:03:36;1.50;99.90
19330;DHT22;9799;48.214;16.388;2024-01-07T13:06:58;1.60;99.90
19330;DHT22;9799;48.214;16.388;2024-01-07T13:10:19;1.60;99.90
19330;DHT22;9799;48.214;16.388;2024-01-07T13:13:41;1.70;99.90
19330;DHT22;9799;48.214;16.388;2024-01-07T13:17:02;1.80;99.90
19330;DHT22;9799;48.214;16.388;2024-01-07T13:20:24;1.80;99.90
19330;DHT22;9799;48.214;16.388;2024-01-07T13:23:46;1.60;99.90
19330;DHT22;9799;48.214;16.388;2024-01-07T13:27:08;1.70;99.90
19330;DHT22;9799;48.214;16.388;2024-01-07T13:30:30;1.70;99.90
19330;DHT22;9799;48.214;16.388;2024-01-07T13:33:52;1.80;99.90
19330;DHT22;9799;48.214;16.388;2024-01-07T13:37:13;1.80;99.90
19330;DHT22;9799;48.214;16.388;2024-01-07T13:40:35;1.70;99.90
19330;DHT22;9799;48.214;16.388;2024-01-07T13:43:56;1.70;99.90
19330;DHT22;9799;48.214;16.388;2024-01-07T13:47:18;1.70;99.90
19330;DHT22;9799;48.214;16.388;2024-01-07T13:50:39;1.80;99.90
19330;DHT22;9799;48.214;16.388;2024-01-07T13:54:00;1.80;99.90
19330;DHT22;9799;48.214;16.388;2024-01-07T13:57:24;1.90;99.90
19330;DHT22;9799;48.214;16.388;2024-01-07T14:00:45;2.00;99.90
19330;DHT22;9799;48.214;16.388;2024-01-07T14:04:06;1.70;99.90
19330;DHT22;9799;48.214;16.388;2024-01-07T14:07:27;1.60;99.90
19330;DHT22;9799;48.214;16.388;2024-01-07T14:10:48;1.60;99.90
19330;DHT22;9799;48.214;16.388;2024-01-07T14:14:11;1.60;99.90
19330;DHT22;9799;48.214;16.388;2024-01-07T14:17:32;1.70;99.90
19330;DHT22;9799;48.214;16.388;2024-01-07T14:20:53;1.80;99.90
19330;DHT22;9799;48.214;16.388;2024-01-07T14:24:14;1.60;99.90
19330;DHT22;9799;48.214;16.388;2024-01-07T14:27:35;1.50;99.90
19330;DHT22;9799;48.214;16.388;2024-01-07T14:30:58;1.70;99.90
19330;DHT22;9799;48.214;16.388;2024-01-07T14:34:19;1.60;99.90
19330;DHT22;9799;48.214;16.388;2024-01-07T14:37:40;1.70;99.90
19330;DHT22;9799;48.214;16.388;2024-01-07T14:41:01;1.80;99.90
19330;DHT22;9799;48.214;16.388;2024-01-07T14:44:22;1.70;99.90
19330;DHT22;9799;48.214;16.388;2024-01-07T14:47:45;1.60;99.90
19330;DHT22;9799;48.214;16.388;2024-01-07T14:51:06;1.60;99.90
19330;DHT22;9799;48.214;16.388;2024-01-07T14:54:28;1.60;99.90
19330;DHT22;9799;48.214;16.388;2024-01-07T14:57:51;1.70;99.90
19330;DHT22;9799;48.214;16.388;2024-01-07T15:01:13;1.70;99.90
19330;DHT22;9799;48.214;16.388;2024-01-07T15:04:35;1.60;99.90
19330;DHT22;9799;48.214;16.388;2024-01-07T15:07:57;1.60;99.90
19330;DHT22;9799;48.214;16.388;2024-01-07T15:11:18;1.60;99.90
19330;DHT22;9799;48.214;16.388;2024-01-07T15:14:39;1.50;99.90
19330;DHT22;9799;48.214;16.388;2024-01-07T15:18:00;1.60;99.90
19330;DHT22;9799;48.214;16.388;2024-01-07T15:21:24;1.60;99.90
19330;DHT22;9799;48.214;16.388;2024-01-07T15:24:45;1.60;99.90
19330;DHT22;9799;48.214;16.388;2024-01-07T15:28:06;1.60;99.90
19330;DHT22;9799;48.214;16.388;2024-01-07T15:31:27;1.60;99.90
19330;DHT22;9799;48.214;16.388;2024-01-07T15:34:48;1.60;99.90
19330;DHT22;9799;48.214;16.388;2024-01-07T15:38:11;1.50;99.90
19330;DHT22;9799;48.214;16.388;2024-01-07T15:41:32;1.60;99.90
19330;DHT22;9799;48.214;16.388;2024-01-07T15:44:53;1.60;99.90
19330;DHT22;9799;48.214;16.388;2024-01-07T15:48:14;1.60;99.90
19330;DHT22;9799;48.214;16.388;2024-01-07T15:51:36;1.60;99.90
19330;DHT22;9799;48.214;16.388;2024-01-07T15:54:59;1.50;99.90
19330;DHT22;9799;48.214;16.388;2024-01-07T15:58:20;1.60;99.90
19330;DHT22;9799;48.214;16.388;2024-01-07T16:01:46;1.60;99.90
19330;DHT22;9799;48.214;16.388;2024-01-07T16:05:07;1.60;99.90
19330;DHT22;9799;48.214;16.388;2024-01-07T16:08:28;1.60;99.90
19330;DHT22;9799;48.214;16.388;2024-01-07T16:11:51;1.60;99.90
19330;DHT22;9799;48.214;16.388;2024-01-07T16:15:12;1.60;99.90
19330;DHT22;9799;48.214;16.388;2024-01-07T16:18:33;1.70;99.90
19330;DHT22;9799;48.214;16.388;2024-01-07T16:21:55;1.80;99.90
19330;DHT22;9799;48.214;16.388;2024-01-07T16:25:18;1.60;99.90
19330;DHT22;9799;48.214;16.388;2024-01-07T16:28:40;1.70;99.90
19330;DHT22;9799;48.214;16.388;2024-01-07T16:32:02;1.60;99.90
19330;DHT22;9799;48.214;16.388;2024-01-07T16:35:24;1.70;99.90
19330;DHT22;9799;48.214;16.388;2024-01-07T16:38:45;1.80;99.90
19330;DHT22;9799;48.214;16.388;2024-01-07T16:42:07;1.80;99.90
19330;DHT22;9799;48.214;16.388;2024-01-07T16:45:29;1.70;99.90
19330;DHT22;9799;48.214;16.388;2024-01-07T16:48:51;1.80;99.90
19330;DHT22;9799;48.214;16.388;2024-01-07T16:52:12;1.70;99.90
19330;DHT22;9799;48.214;16.388;2024-01-07T16:55:34;1.50;99.90
19330;DHT22;9799;48.214;16.388;2024-01-07T16:58:55;1.50;99.90
19330;DHT22;9799;48.214;16.388;2024-01-07T17:02:18;1.50;99.90
19330;DHT22;9799;48.214;16.388;2024-01-07T17:05:39;1.50;99.90
19330;DHT22;9799;48.214;16.388;2024-01-07T17:09:02;1.30;99.90
19330;DHT22;9799;48.214;16.388;2024-01-07T17:12:23;1.50;99.90
19330;DHT22;9799;48.214;16.388;2024-01-07T17:15:45;1.40;99.90
19330;DHT22;9799;48.214;16.388;2024-01-07T17:19:07;1.50;99.90
19330;DHT22;9799;48.214;16.388;2024-01-07T17:22:29;1.50;99.90
19330;DHT22;9799;48.214;16.388;2024-01-07T17:25:50;1.40;99.90
19330;DHT22;9799;48.214;16.388;2024-01-07T17:29:11;1.40;99.90
19330;DHT22;9799;48.214;16.388;2024-01-07T17:32:32;1.40;99.90
19330;DHT22;9799;48.214;16.388;2024-01-07T17:35:55;1.20;99.90
19330;DHT22;9799;48.214;16.388;2024-01-07T17:39:16;1.30;99.90
19330;DHT22;9799;48.214;16.388;2024-01-07T17:42:38;1.30;99.90
19330;DHT22;9799;48.214;16.388;2024-01-07T17:45:59;1.20;99.90
19330;DHT22;9799;48.214;16.388;2024-01-07T17:49:22;1.30;99.90
19330;DHT22;9799;48.214;16.388;2024-01-07T17:52:44;1.20;99.90
19330;DHT22;9799;48.214;16.388;2024-01-07T17:56:06;1.40;99.90
19330;DHT22;9799;48.214;16.388;2024-01-07T17:59:27;1.30;99.90
19330;DHT22;9799;48.214;16.388;2024-01-07T18:02:49;1.30;99.90
19330;DHT22;9799;48.214;16.388;2024-01-07T18:06:10;1.30;99.90
19330;DHT22;9799;48.214;16.388;2024-01-07T18:09:32;1.30;99.90
19330;DHT22;9799;48.214;16.388;2024-01-07T18:12:53;1.10;99.90
19330;DHT22;9799;48.214;16.388;2024-01-07T18:16:15;1.10;99.90
19330;DHT22;9799;48.214;16.388;2024-01-07T18:19:36;1.10;99.90
19330;DHT22;9799;48.214;16.388;2024-01-07T18:22:57;1.10;99.90
19330;DHT22;9799;48.214;16.388;2024-01-07T18:26:20;1.10;99.90
19330;DHT22;9799;48.214;16.388;2024-01-07T18:29:41;1.10;99.90
19330;DHT22;9799;48.214;16.388;2024-01-07T18:33:03;1.10;99.90
19330;DHT22;9799;48.214;16.388;2024-01-07T18:36:24;0.90;99.90
19330;DHT22;9799;48.214;16.388;2024-01-07T18:39:45;0.80;99.90
19330;DHT22;9799;48.214;16.388;2024-01-07T18:43:08;0.80;99.90
19330;DHT22;9799;48.214;16.388;2024-01-07T18:46:29;0.90;99.90
19330;DHT22;9799;48.214;16.388;2024-01-07T18:49:50;0.80;99.90
19330;DHT22;9799;48.214;16.388;2024-01-07T18:53:11;0.80;99.90
19330;DHT22;9799;48.214;16.388;2024-01-07T18:56:33;0.90;99.90
19330;DHT22;9799;48.214;16.388;2024-01-07T18:59:56;0.90;99.90
19330;DHT22;9799;48.214;16.388;2024-01-07T19:03:17;0.90;99.90
19330;DHT22;9799;48.214;16.388;2024-01-07T19:06:39;0.90;99.90
19330;DHT22;9799;48.214;16.388;2024-01-07T19:10:00;0.80;99.90
19330;DHT22;9799;48.214;16.388;2024-01-07T19:13:21;0.90;99.90
19330;DHT22;9799;48.214;16.388;2024-01-07T19:16:44;0.90;99.90
19330;DHT22;9799;48.214;16.388;2024-01-07T19:20:06;0.80;99.90
19330;DHT22;9799;48.214;16.388;2024-01-07T19:23:27;0.60;99.90
19330;DHT22;9799;48.214;16.388;2024-01-07T19:26:49;0.50;99.90
19330;DHT22;9799;48.214;16.388;2024-01-07T19:30:10;0.70;99.90
19330;DHT22;9799;48.214;16.388;2024-01-07T19:33:33;0.80;99.90
19330;DHT22;9799;48.214;16.388;2024-01-07T19:36:56;0.80;99.90
19330;DHT22;9799;48.214;16.388;2024-01-07T19:40:17;0.60;99.90
19330;DHT22;9799;48.214;16.388;2024-01-07T19:43:38;0.70;99.90
19330;DHT22;9799;48.214;16.388;2024-01-07T19:47:00;0.70;99.90
19330;DHT22;9799;48.214;16.388;2024-01-07T19:50:23;0.70;99.90
19330;DHT22;9799;48.214;16.388;2024-01-07T19:53:45;0.70;99.90
19330;DHT22;9799;48.214;16.388;2024-01-07T19:57:07;0.70;99.90
19330;DHT22;9799;48.214;16.388;2024-01-07T20:00:28;0.60;99.90
19330;DHT22;9799;48.214;16.388;2024-01-07T20:03:49;0.50;99.90
19330;DHT22;9799;48.214;16.388;2024-01-07T20:07:12;0.40;99.90
19330;DHT22;9799;48.214;16.388;2024-01-07T20:10:34;0.40;99.90
19330;DHT22;9799;48.214;16.388;2024-01-07T20:13:56;0.50;99.90
19330;DHT22;9799;48.214;16.388;2024-01-07T20:17:17;0.60;99.90
19330;DHT22;9799;48.214;16.388;2024-01-07T20:20:38;0.60;99.90
19330;DHT22;9799;48.214;16.388;2024-01-07T20:24:01;0.50;99.90
19330;DHT22;9799;48.214;16.388;2024-01-07T20:27:22;0.50;99.90
19330;DHT22;9799;48.214;16.388;2024-01-07T20:30:43;0.50;99.90
19330;DHT22;9799;48.214;16.388;2024-01-07T20:34:04;0.50;99.90
19330;DHT22;9799;48.214;16.388;2024-01-07T20:37:26;0.40;99.90
19330;DHT22;9799;48.214;16.388;2024-01-07T20:40:49;0.40;99.90
19330;DHT22;9799;48.214;16.388;2024-01-07T20:44:11;0.40;99.90
19330;DHT22;9799;48.214;16.388;2024-01-07T20:47:32;0.40;99.90
19330;DHT22;9799;48.214;16.388;2024-01-07T20:50:53;0.30;99.90
19330;DHT22;9799;48.214;16.388;2024-01-07T20:54:14;0.30;99.90
19330;DHT22;9799;48.214;16.388;2024-01-07T20:57:37;0.20;99.90
19330;DHT22;9799;48.214;16.388;2024-01-07T21:00:58;0.20;99.90
19330;DHT22;9799;48.214;16.388;2024-01-07T21:04:20;0.40;99.90
19330;DHT22;9799;48.214;16.388;2024-01-07T21:07:42;0.30;99.90
19330;DHT22;9799;48.214;16.388;2024-01-07T21:11:05;0.30;99.90
19330;DHT22;9799;48.214;16.388;2024-01-07T21:14:27;0.40;99.90
19330;DHT22;9799;48.214;16.388;2024-01-07T21:17:49;0.40;99.90
19330;DHT22;9799;48.214;16.388;2024-01-07T21:21:10;0.20;99.90
19330;DHT22;9799;48.214;16.388;2024-01-07T21:24:31;0.30;99.90
19330;DHT22;9799;48.214;16.388;2024-01-07T21:27:53;0.00;99.90
19330;DHT22;9799;48.214;16.388;2024-01-07T21:31:19;0.00;99.90
19330;DHT22;9799;48.214;16.388;2024-01-07T21:34:40;0.00;99.90